Time;durP1;ratioP1;P1;durP2;ratioP2;P2;SDS_P1;SDS_P2;PMS_P1;PMS_P2;Temp;Humidity;BMP_temperature;BMP_pressure;BME280_temperature;BME280_humidity;BME280_pressure;Samples;Min_cycle;Max_cycle;Signal;HPM_P1;HPM_P2
2023/04/18 00:02:14;;;;;;;18.35;10.73;;;10.30;99.90;;;;;;5096676;28;20063;-72
2023/04/18 00:04:40;;;;;;;16.20;10.13;;;10.20;99.90;;;;;;5096798;28;20445;-72
2023/04/18 00:07:05;;;;;;;17.65;10.10;;;9.90;99.90;;;;;;5096797;28;20082;-72
2023/04/18 00:09:31;;;;;;;16.70;10.40;;;10.00;99.90;;;;;;5096712;28;20044;-72
2023/04/18 00:11:57;;;;;;;20.55;11.07;;;10.00;99.90;;;;;;5096580;28;20052;-71
2023/04/18 00:14:23;;;;;;;18.38;10.23;;;10.10;99.90;;;;;;5096892;28;20101;-72
2023/04/18 00:16:50;;;;;;;15.73;9.23;;;10.10;99.90;;;;;;5096897;28;20079;-72
2023/04/18 00:19:17;;;;;;;15.93;9.40;;;10.00;99.90;;;;;;5096942;28;20040;-71
2023/04/18 00:21:43;;;;;;;14.32;8.93;;;10.00;99.90;;;;;;5096892;28;20048;-72
2023/04/18 00:24:10;;;;;;;17.27;9.68;;;10.00;99.90;;;;;;5096864;28;20036;-72
2023/04/18 00:26:36;;;;;;;16.90;9.50;;;10.00;99.90;;;;;;5097065;28;20123;-72
2023/04/18 00:29:02;;;;;;;15.18;8.25;;;10.20;99.90;;;;;;5096864;28;20124;-72
2023/04/18 00:31:28;;;;;;;16.42;8.50;;;10.20;99.90;;;;;;5096454;28;20069;-72
2023/04/18 00:33:53;;;;;;;13.30;7.85;;;10.00;99.90;;;;;;5096915;28;20306;-72
2023/04/18 00:36:19;;;;;;;12.98;7.97;;;10.00;99.90;;;;;;5096704;28;20036;-72
2023/04/18 00:38:45;;;;;;;12.82;8.73;;;9.90;99.90;;;;;;5096780;28;20483;-72
2023/04/18 00:41:10;;;;;;;16.20;8.40;;;9.90;99.90;;;;;;5096731;28;20036;-72
2023/04/18 00:43:36;;;;;;;14.48;8.32;;;10.00;99.90;;;;;;5095362;28;20059;-71
2023/04/18 00:46:02;;;;;;;13.95;7.80;;;9.80;99.90;;;;;;5096320;28;20115;-72
2023/04/18 00:48:29;;;;;;;12.60;7.85;;;9.80;99.90;;;;;;5099204;28;20042;-72
2023/04/18 00:50:55;;;;;;;13.05;8.00;;;9.80;99.90;;;;;;5100651;28;20092;-71
2023/04/18 00:53:21;;;;;;;12.90;7.85;;;9.90;99.90;;;;;;5100625;28;20028;-72
2023/04/18 00:55:47;;;;;;;14.20;7.28;;;9.90;99.90;;;;;;5100510;28;20157;-72
2023/04/18 00:58:13;;;;;;;12.43;7.93;;;10.00;99.90;;;;;;5100555;28;20085;-71
2023/04/18 01:00:39;;;;;;;14.02;7.70;;;10.10;99.90;;;;;;5099736;28;20432;-72
2023/04/18 01:03:07;;;;;;;13.45;7.80;;;10.20;99.90;;;;;;5100162;28;20043;-71
2023/04/18 01:05:34;;;;;;;14.82;9.00;;;10.20;99.90;;;;;;5100137;28;20076;-71
2023/04/18 01:08:00;;;;;;;15.50;9.15;;;10.20;99.90;;;;;;5100033;28;20476;-72
2023/04/18 01:10:26;;;;;;;18.48;10.10;;;10.10;99.90;;;;;;5098746;28;20076;-71
2023/04/18 01:13:14;;;;;;;14.30;9.40;;;10.00;99.90;;;;;;5099873;28;20052;-72
2023/04/18 01:15:45;;;;;;;16.05;9.18;;;10.00;99.90;;;;;;5100033;28;20345;-72
2023/04/18 01:18:12;;;;;;;21.77;9.90;;;9.90;99.90;;;;;;5099807;28;20044;-72
2023/04/18 01:20:45;;;;;;;19.02;9.63;;;9.70;99.90;;;;;;5099145;28;20050;-72
2023/04/18 01:23:11;;;;;;;16.67;10.38;;;9.80;99.90;;;;;;5100112;28;20036;-72
2023/04/18 01:25:37;;;;;;;18.70;9.82;;;9.70;99.90;;;;;;5100099;28;20374;-71
2023/04/18 01:28:04;;;;;;;17.75;9.57;;;9.70;99.90;;;;;;5099738;28;20043;-72
2023/04/18 01:30:31;;;;;;;17.55;10.00;;;9.60;99.90;;;;;;5099179;28;20044;-72
2023/04/18 01:32:56;;;;;;;16.92;10.18;;;9.50;99.90;;;;;;5099858;28;20036;-72
2023/04/18 01:35:22;;;;;;;20.80;9.98;;;9.50;99.90;;;;;;5099805;28;20372;-71
2023/04/18 01:37:48;;;;;;;16.95;9.63;;;9.40;99.90;;;;;;5099682;28;20036;-72
2023/04/18 01:40:13;;;;;;;19.92;10.95;;;9.50;99.90;;;;;;5099727;28;20040;-72
2023/04/18 01:42:39;;;;;;;19.05;10.50;;;9.40;99.90;;;;;;5099635;28;20072;-71
2023/04/18 01:45:06;;;;;;;19.38;10.95;;;9.40;99.90;;;;;;5099688;28;20040;-72
2023/04/18 01:47:31;;;;;;;19.95;11.13;;;9.50;99.90;;;;;;5100064;28;20051;-72
2023/04/18 01:49:57;;;;;;;22.33;10.60;;;9.40;99.90;;;;;;5099541;28;20040;-72
2023/04/18 01:52:22;;;;;;;17.10;10.27;;;9.50;99.90;;;;;;5099468;28;20044;-72
2023/04/18 01:54:48;;;;;;;16.88;10.20;;;9.40;99.90;;;;;;5099449;28;20123;-72
2023/04/18 01:57:14;;;;;;;19.60;10.23;;;9.50;99.90;;;;;;5099327;28;20119;-72
2023/04/18 01:59:39;;;;;;;14.15;9.00;;;9.20;99.90;;;;;;5098340;28;20393;-71
2023/04/18 02:02:05;;;;;;;17.00;9.55;;;9.30;99.90;;;;;;5098892;28;20417;-72
2023/04/18 02:04:31;;;;;;;21.65;9.95;;;9.40;99.90;;;;;;5099194;28;20111;-71
2023/04/18 02:06:56;;;;;;;15.23;9.45;;;9.30;99.90;;;;;;5099209;28;20044;-72
2023/04/18 02:09:22;;;;;;;18.23;9.27;;;9.30;99.90;;;;;;5099166;28;20072;-72
2023/04/18 02:11:49;;;;;;;16.65;9.13;;;9.40;99.90;;;;;;5098664;28;20353;-72
2023/04/18 02:14:14;;;;;;;15.20;8.52;;;9.30;99.90;;;;;;5099059;28;20089;-72
2023/04/18 02:16:40;;;;;;;16.75;9.25;;;9.30;99.90;;;;;;5098960;28;20043;-72
2023/04/18 02:19:06;;;;;;;15.98;8.75;;;9.40;99.90;;;;;;5098920;28;20433;-72
2023/04/18 02:21:31;;;;;;;17.63;9.13;;;9.50;99.90;;;;;;5098937;28;20036;-73
2023/04/18 02:23:57;;;;;;;13.90;8.77;;;9.40;99.90;;;;;;5098898;28;20093;-72
2023/04/18 02:26:23;;;;;;;15.63;8.60;;;9.30;99.90;;;;;;5098769;28;20376;-72
2023/04/18 02:28:49;;;;;;;15.88;8.88;;;9.30;99.90;;;;;;5098805;28;20039;-72
2023/04/18 02:31:15;;;;;;;14.63;8.35;;;9.30;99.90;;;;;;5098149;28;20036;-72
2023/04/18 02:33:42;;;;;;;14.18;8.52;;;9.40;99.90;;;;;;5098387;28;20437;-72
2023/04/18 02:36:08;;;;;;;14.32;7.90;;;9.40;99.90;;;;;;5098294;28;20488;-72
2023/04/18 02:38:34;;;;;;;14.20;7.70;;;9.30;99.90;;;;;;5098399;28;20040;-72
2023/04/18 02:40:59;;;;;;;13.35;7.43;;;9.40;99.90;;;;;;5098194;28;20040;-72
2023/04/18 02:43:25;;;;;;;14.68;7.70;;;9.40;99.90;;;;;;5098486;28;20040;-72
2023/04/18 02:45:51;;;;;;;14.18;7.30;;;9.40;99.90;;;;;;5098451;28;20040;-72
2023/04/18 02:48:16;;;;;;;12.07;6.85;;;9.40;99.90;;;;;;5098353;28;20105;-72
2023/04/18 02:50:42;;;;;;;15.02;7.15;;;9.30;99.90;;;;;;5098119;28;20115;-72
2023/04/18 02:53:07;;;;;;;15.02;7.68;;;9.20;99.90;;;;;;5098314;28;20097;-72
2023/04/18 02:55:33;;;;;;;11.15;7.03;;;9.30;99.90;;;;;;5098292;28;20039;-72
2023/04/18 02:57:59;;;;;;;13.93;7.32;;;9.30;99.90;;;;;;5098160;28;20329;-72
2023/04/18 03:00:24;;;;;;;14.30;7.07;;;9.50;99.90;;;;;;5097748;28;20113;-72
2023/04/18 03:02:51;;;;;;;12.02;6.95;;;9.60;99.90;;;;;;5098081;28;20111;-72
2023/04/18 03:05:18;;;;;;;11.43;6.82;;;9.70;99.90;;;;;;5098097;28;20044;-72
2023/04/18 03:07:43;;;;;;;13.82;6.95;;;9.70;99.90;;;;;;5097749;28;20457;-72
2023/04/18 03:10:09;;;;;;;13.02;6.70;;;9.70;99.90;;;;;;5097832;28;20044;-72
2023/04/18 03:12:35;;;;;;;16.65;6.55;;;9.70;99.90;;;;;;5097472;28;20383;-72
2023/04/18 03:15:01;;;;;;;15.43;6.13;;;9.80;99.90;;;;;;5096836;28;20044;-72
2023/04/18 03:17:27;;;;;;;11.27;6.70;;;9.80;99.90;;;;;;5097724;28;20051;-73
2023/04/18 03:19:52;;;;;;;10.90;6.47;;;9.90;99.90;;;;;;5097815;28;20032;-72
2023/04/18 03:22:18;;;;;;;12.77;6.97;;;9.90;99.90;;;;;;5097487;28;20040;-72
2023/04/18 03:24:44;;;;;;;11.02;6.10;;;10.00;99.90;;;;;;5097760;28;20040;-72
2023/04/18 03:27:10;;;;;;;11.95;6.28;;;9.90;99.90;;;;;;5097681;28;20063;-72
2023/04/18 03:29:36;;;;;;;11.30;5.78;;;10.00;99.90;;;;;;5097695;28;20040;-72
2023/04/18 03:32:01;;;;;;;12.77;6.15;;;10.10;99.90;;;;;;5097082;28;20393;-72
2023/04/18 03:34:28;;;;;;;11.60;5.75;;;10.00;99.90;;;;;;5097542;28;20047;-72
2023/04/18 03:36:53;;;;;;;10.68;6.22;;;9.90;99.90;;;;;;5097489;28;20083;-72
2023/04/18 03:39:19;;;;;;;11.65;6.32;;;10.00;99.90;;;;;;5097519;28;20036;-72
2023/04/18 03:41:45;;;;;;;10.90;5.70;;;10.10;99.90;;;;;;5097428;28;20036;-72
2023/04/18 03:44:10;;;;;;;11.30;5.80;;;10.10;99.90;;;;;;5097345;28;20414;-72
2023/04/18 03:46:36;;;;;;;10.68;5.57;;;10.00;99.90;;;;;;5097408;28;20036;-72
2023/04/18 03:49:02;;;;;;;11.50;5.85;;;10.00;99.90;;;;;;5097315;28;20397;-72
2023/04/18 03:51:33;;;;;;;10.15;6.05;;;9.90;99.90;;;;;;5097300;28;20064;-72
2023/04/18 03:53:58;;;;;;;11.18;6.32;;;10.00;99.90;;;;;;5097185;28;20055;-72
2023/04/18 03:56:25;;;;;;;9.10;5.90;;;10.00;99.90;;;;;;5097181;28;20095;-72
2023/04/18 03:58:50;;;;;;;9.48;5.70;;;9.90;99.90;;;;;;5096867;28;20036;-72
2023/04/18 04:01:16;;;;;;;12.25;5.75;;;9.90;99.90;;;;;;5096719;28;20092;-72
2023/04/18 04:03:41;;;;;;;10.00;5.80;;;10.00;99.90;;;;;;5097118;28;20333;-72
2023/04/18 04:06:07;;;;;;;10.63;6.13;;;10.00;99.90;;;;;;5097044;28;20306;-72
2023/04/18 04:08:33;;;;;;;8.85;5.60;;;9.90;99.90;;;;;;5090200;28;20315;-73
2023/04/18 04:10:59;;;;;;;10.10;6.53;;;9.80;99.90;;;;;;5075560;28;20032;-74
2023/04/18 04:13:24;;;;;;;11.38;5.88;;;9.70;99.90;;;;;;5076311;28;20070;-72
2023/04/18 04:15:51;;;;;;;10.30;5.57;;;9.70;99.90;;;;;;5076735;28;20123;-72
2023/04/18 04:18:17;;;;;;;11.30;5.45;;;9.60;99.90;;;;;;5076659;28;20082;-72
2023/04/18 04:20:44;;;;;;;10.00;5.57;;;9.50;99.90;;;;;;5076398;28;20036;-72
2023/04/18 04:23:10;;;;;;;9.07;5.60;;;9.40;99.90;;;;;;5076120;28;20047;-72
2023/04/18 04:25:37;;;;;;;14.18;5.60;;;9.50;99.90;;;;;;5076772;28;20045;-72
2023/04/18 04:28:03;;;;;;;9.85;5.50;;;9.40;99.90;;;;;;5076651;28;20391;-72
2023/04/18 04:30:28;;;;;;;13.98;5.45;;;9.40;99.90;;;;;;5076188;28;20048;-72
2023/04/18 04:32:55;;;;;;;10.00;5.25;;;9.40;99.90;;;;;;5076593;28;20063;-72
2023/04/18 04:35:21;;;;;;;13.20;5.88;;;9.40;99.90;;;;;;5076270;28;20426;-72
2023/04/18 04:37:47;;;;;;;11.85;5.55;;;9.40;99.90;;;;;;5076437;28;20041;-72
2023/04/18 04:40:14;;;;;;;10.77;5.95;;;9.40;99.90;;;;;;5076541;28;20041;-72
2023/04/18 04:42:40;;;;;;;8.73;5.68;;;9.30;99.90;;;;;;5076163;28;20044;-72
2023/04/18 04:45:08;;;;;;;8.48;5.45;;;9.30;99.90;;;;;;5076160;28;20040;-72
2023/04/18 04:47:34;;;;;;;9.35;5.68;;;9.40;99.90;;;;;;5076247;28;20079;-72
2023/04/18 04:50:00;;;;;;;10.95;5.82;;;9.40;99.90;;;;;;5076370;28;20055;-74
2023/04/18 04:52:25;;;;;;;14.32;6.30;;;9.50;99.90;;;;;;5075203;28;20040;-72
2023/04/18 04:54:51;;;;;;;10.45;6.35;;;9.50;99.90;;;;;;5076099;28;20043;-72
2023/04/18 04:57:17;;;;;;;11.02;6.07;;;9.50;99.90;;;;;;5076288;28;20087;-72
2023/04/18 04:59:42;;;;;;;10.10;6.22;;;9.70;99.90;;;;;;5076104;28;20402;-72
2023/04/18 05:02:08;;;;;;;13.52;7.25;;;9.70;99.90;;;;;;5075912;28;20036;-72
2023/04/18 05:04:34;;;;;;;12.88;7.53;;;9.70;99.90;;;;;;5076029;28;20384;-72
2023/04/18 05:07:00;;;;;;;13.95;7.35;;;9.60;99.90;;;;;;5075021;28;20036;-72
2023/04/18 05:09:25;;;;;;;12.30;7.18;;;9.50;99.90;;;;;;5076295;28;20044;-72
2023/04/18 05:11:51;;;;;;;11.65;7.47;;;9.50;99.90;;;;;;5075932;28;20080;-72
2023/04/18 05:14:17;;;;;;;12.80;7.45;;;9.50;99.90;;;;;;5076213;28;20040;-72
2023/04/18 05:16:42;;;;;;;14.40;6.97;;;9.60;99.90;;;;;;5076134;28;20041;-73
2023/04/18 05:19:08;;;;;;;12.63;7.50;;;9.60;99.90;;;;;;5076304;28;20044;-72
2023/04/18 05:21:34;;;;;;;14.23;7.70;;;9.80;99.90;;;;;;5076112;28;20059;-72
2023/04/18 05:24:00;;;;;;;12.73;7.40;;;10.00;99.90;;;;;;5075829;28;20040;-72
2023/04/18 05:26:25;;;;;;;13.38;7.03;;;9.90;99.90;;;;;;5076141;28;20045;-72
2023/04/18 05:28:51;;;;;;;14.45;7.82;;;9.80;99.90;;;;;;5076104;28;20389;-72
2023/04/18 05:31:17;;;;;;;12.43;7.00;;;9.70;99.90;;;;;;5075327;28;20044;-72
2023/04/18 05:33:42;;;;;;;14.77;8.23;;;9.60;99.90;;;;;;5075707;28;20080;-72
2023/04/18 05:36:08;;;;;;;17.13;8.48;;;9.70;99.90;;;;;;5078788;28;20048;-73
2023/04/18 05:38:34;;;;;;;16.17;8.65;;;9.80;99.90;;;;;;5079519;28;20041;-72
2023/04/18 05:41:01;;;;;;;16.00;9.30;;;9.80;99.90;;;;;;5079134;28;20090;-72
2023/04/18 05:43:27;;;;;;;13.73;7.38;;;9.90;99.90;;;;;;5078319;28;20048;-72
2023/04/18 05:45:53;;;;;;;13.82;8.10;;;9.90;99.90;;;;;;5079403;28;20047;-72
2023/04/18 05:48:20;;;;;;;12.85;7.97;;;9.90;99.90;;;;;;5079265;28;20089;-72
2023/04/18 05:50:45;;;;;;;14.18;8.23;;;9.90;99.90;;;;;;5079337;28;20044;-72
2023/04/18 05:53:11;;;;;;;12.63;8.35;;;10.00;99.90;;;;;;5078933;28;20154;-72
2023/04/18 05:55:39;;;;;;;17.52;8.80;;;10.00;99.90;;;;;;5078828;28;20133;-72
2023/04/18 05:58:05;;;;;;;15.52;8.77;;;10.00;99.90;;;;;;5077828;28;20040;-72
2023/04/18 06:00:30;;;;;;;19.45;8.85;;;10.00;99.90;;;;;;5078737;28;20032;-72
2023/04/18 06:02:56;;;;;;;15.70;8.95;;;10.10;99.90;;;;;;5079089;28;20047;-72
2023/04/18 06:05:22;;;;;;;14.88;8.13;;;10.30;99.90;;;;;;5078993;28;20121;-72
2023/04/18 06:07:48;;;;;;;17.67;9.13;;;10.20;99.90;;;;;;5079002;28;20426;-72
2023/04/18 06:10:14;;;;;;;17.58;8.80;;;10.30;99.90;;;;;;5078677;28;20102;-72
2023/04/18 06:12:40;;;;;;;17.95;9.07;;;10.30;99.90;;;;;;5078360;28;20110;-71
2023/04/18 06:15:06;;;;;;;14.80;8.55;;;10.20;99.90;;;;;;5078837;28;20045;-72
2023/04/18 06:17:33;;;;;;;14.13;7.53;;;10.20;99.90;;;;;;5078708;28;20047;-72
2023/04/18 06:19:59;;;;;;;16.10;8.68;;;10.30;99.90;;;;;;5078438;28;20041;-73
2023/04/18 06:22:25;;;;;;;13.13;8.30;;;10.50;99.90;;;;;;5078763;28;20036;-72
2023/04/18 06:24:51;;;;;;;14.82;7.65;;;10.60;99.90;;;;;;5078906;28;20068;-72
2023/04/18 06:27:16;;;;;;;12.95;7.13;;;10.80;99.90;;;;;;5078317;28;20045;-72
2023/04/18 06:29:42;;;;;;;14.63;7.60;;;10.60;99.90;;;;;;5078230;28;20048;-72
2023/04/18 06:32:08;;;;;;;15.38;7.55;;;10.40;99.90;;;;;;5077985;28;20491;-72
2023/04/18 06:34:34;;;;;;;11.93;8.00;;;10.30;99.90;;;;;;5078460;28;20036;-72
2023/04/18 06:37:00;;;;;;;15.15;7.35;;;10.30;99.90;;;;;;5093946;28;20036;-72
2023/04/18 06:39:26;;;;;;;15.82;7.45;;;10.20;99.90;;;;;;5098124;28;20048;-72
2023/04/18 06:41:52;;;;;;;13.68;7.38;;;10.30;99.90;;;;;;5097947;28;20318;-72
2023/04/18 06:44:18;;;;;;;16.90;7.40;;;10.30;99.90;;;;;;5098422;28;20032;-72
2023/04/18 06:46:43;;;;;;;13.70;7.15;;;10.40;99.90;;;;;;5097973;28;20086;-71
2023/04/18 06:49:09;;;;;;;13.60;7.35;;;10.40;99.90;;;;;;5098339;28;20089;-73
2023/04/18 06:51:35;;;;;;;11.27;7.68;;;10.40;99.90;;;;;;5098457;28;20036;-67
2023/04/18 06:54:01;;;;;;;13.20;7.28;;;10.40;99.90;;;;;;5098153;28;20044;-70
2023/04/18 06:56:27;;;;;;;16.25;7.95;;;10.40;99.90;;;;;;5098209;28;20040;-69
2023/04/18 06:58:52;;;;;;;14.65;7.53;;;10.50;99.90;;;;;;5098379;28;20526;-67
2023/04/18 07:01:18;;;;;;;17.13;7.93;;;10.50;99.90;;;;;;5097478;28;20036;-68
2023/04/18 07:03:44;;;;;;;11.05;6.88;;;10.60;99.90;;;;;;5098112;28;20035;-67
2023/04/18 07:06:09;;;;;;;13.77;7.85;;;10.50;99.90;;;;;;5098009;28;20387;-67
2023/04/18 07:08:35;;;;;;;15.80;7.25;;;10.50;99.90;;;;;;5098244;28;20036;-67
2023/04/18 07:11:01;;;;;;;15.05;7.72;;;10.40;99.90;;;;;;5097721;28;20044;-67
2023/04/18 07:13:27;;;;;;;13.55;7.70;;;10.40;99.90;;;;;;5097540;28;20193;-67
2023/04/18 07:15:53;;;;;;;11.45;7.28;;;10.30;99.90;;;;;;5097879;28;20111;-66
2023/04/18 07:18:18;;;;;;;17.65;7.93;;;10.30;99.90;;;;;;5097792;28;20417;-67
2023/04/18 07:20:44;;;;;;;14.48;7.80;;;10.30;99.90;;;;;;5097648;28;20040;-67
2023/04/18 07:23:10;;;;;;;20.05;8.10;;;10.40;99.90;;;;;;5097759;28;20036;-67
2023/04/18 07:25:37;;;;;;;13.18;7.07;;;10.40;99.90;;;;;;5097772;28;20332;-67
2023/04/18 07:28:02;;;;;;;14.88;8.30;;;10.40;99.90;;;;;;5097463;28;20092;-66
2023/04/18 07:30:28;;;;;;;14.43;7.88;;;10.50;99.90;;;;;;5096932;28;20044;-67
2023/04/18 07:32:54;;;;;;;12.40;7.60;;;10.50;99.90;;;;;;5097280;28;20040;-67
2023/04/18 07:35:20;;;;;;;12.95;7.82;;;10.60;99.90;;;;;;5113137;28;20101;-67
2023/04/18 07:37:46;;;;;;;12.27;7.22;;;10.90;99.90;;;;;;5097183;28;20051;-67
2023/04/18 07:40:12;;;;;;;13.23;7.25;;;10.80;99.90;;;;;;5097411;28;20040;-67
2023/04/18 07:42:38;;;;;;;15.80;7.35;;;11.00;99.90;;;;;;5097521;28;20047;-66
2023/04/18 07:45:04;;;;;;;15.43;7.85;;;11.00;99.90;;;;;;5097013;28;20032;-66
2023/04/18 07:47:30;;;;;;;14.65;7.53;;;11.10;99.90;;;;;;5097355;28;20059;-67
2023/04/18 07:49:56;;;;;;;14.52;7.60;;;11.20;99.90;;;;;;5097329;28;20437;-67
2023/04/18 07:52:22;;;;;;;14.32;7.47;;;11.30;99.90;;;;;;5096966;28;20571;-66
2023/04/18 07:54:47;;;;;;;18.95;7.70;;;11.40;99.90;;;;;;5097268;28;20118;-67
2023/04/18 07:57:13;;;;;;;17.13;7.95;;;11.30;99.90;;;;;;5096276;28;20322;-68
2023/04/18 07:59:39;;;;;;;17.77;8.30;;;11.20;99.90;;;;;;5097152;28;20044;-68
2023/04/18 08:02:05;;;;;;;12.60;8.10;;;11.40;99.90;;;;;;5096743;28;20040;-67
2023/04/18 08:04:31;;;;;;;14.82;7.30;;;11.60;99.90;;;;;;5096876;28;20059;-67
2023/04/18 08:06:56;;;;;;;11.30;6.85;;;11.50;99.90;;;;;;5096986;28;20036;-67
2023/04/18 08:09:22;;;;;;;14.13;8.23;;;11.50;99.90;;;;;;5096989;28;20040;-67
2023/04/18 08:11:48;;;;;;;14.13;7.82;;;11.60;99.90;;;;;;5097029;28;20096;-73
2023/04/18 08:14:13;;;;;;;15.57;8.07;;;11.50;99.90;;;;;;5078581;28;20125;-70
2023/04/18 08:16:39;;;;;;;15.10;7.68;;;11.40;99.90;;;;;;5096894;28;20036;-67
2023/04/18 08:19:05;;;;;;;15.10;8.07;;;11.30;99.90;;;;;;5096906;28;20097;-67
2023/04/18 08:21:31;;;;;;;15.20;7.65;;;11.30;99.90;;;;;;5096867;28;20410;-68
2023/04/18 08:23:57;;;;;;;15.43;8.18;;;11.40;99.90;;;;;;5096908;28;20040;-68
2023/04/18 08:26:23;;;;;;;12.38;7.55;;;11.60;99.90;;;;;;5096854;28;20040;-68
2023/04/18 08:28:49;;;;;;;17.55;9.60;;;12.00;99.90;;;;;;5095504;28;20043;-68
2023/04/18 08:31:15;;;;;;;15.23;8.50;;;12.00;99.90;;;;;;5096218;28;20096;-75
2023/04/18 08:33:41;;;;;;;13.35;7.55;;;12.00;99.90;;;;;;5062190;28;20422;-74
2023/04/18 08:36:08;;;;;;;12.55;7.50;;;11.70;99.90;;;;;;5095538;28;20039;-75
2023/04/18 08:38:33;;;;;;;13.48;7.70;;;11.50;99.90;;;;;;5078784;28;20052;-71
2023/04/18 08:40:59;;;;;;;15.10;7.15;;;11.60;99.90;;;;;;5096738;28;20047;-71
2023/04/18 08:43:25;;;;;;;12.65;7.15;;;11.60;99.90;;;;;;5096698;28;20036;-71
2023/04/18 08:45:57;;;;;;;27.50;10.35;;;11.60;99.90;;;;;;5095395;28;20508;-70
2023/04/18 08:48:23;;;;;;;12.02;7.30;;;11.60;99.90;;;;;;5096770;28;20093;-71
2023/04/18 08:50:48;;;;;;;13.70;7.07;;;11.70;99.90;;;;;;5096641;28;20032;-75
2023/04/18 08:53:16;;;;;;;17.15;7.82;;;11.70;99.90;;;;;;5097276;28;20043;-75
2023/04/18 08:55:43;;;;;;;13.73;7.88;;;11.70;99.90;;;;;;5096072;28;20451;-75
2023/04/18 08:58:11;;;;;;;18.90;7.40;;;11.80;99.90;;;;;;5095969;28;20044;-77
2023/04/18 09:00:36;;;;;;;15.93;7.53;;;11.90;99.90;;;;;;5094916;28;20073;-74
2023/04/18 09:03:02;;;;;;;13.77;8.25;;;12.00;99.90;;;;;;5096621;28;20036;-74
2023/04/18 09:05:28;;;;;;;16.25;8.00;;;12.00;99.90;;;;;;5078567;28;20043;-75
2023/04/18 09:07:55;;;;;;;13.88;8.07;;;12.20;99.90;;;;;;5096656;28;20040;-76
2023/04/18 09:10:32;;;;;;;14.45;7.63;;;12.30;99.90;;;;;;5100208;28;20047;-71
2023/04/18 09:12:59;;;;;;;14.30;7.95;;;12.40;99.90;;;;;;5099964;28;20443;-70
2023/04/18 09:15:27;;;;;;;15.43;7.68;;;12.60;99.90;;;;;;5099368;28;20040;-72
2023/04/18 09:17:56;;;;;;;15.95;8.00;;;12.80;99.90;;;;;;5100132;28;20044;-72
2023/04/18 09:20:33;;;;;;;13.23;8.27;;;12.90;99.90;;;;;;5099939;28;20092;-72
2023/04/18 09:23:00;;;;;;;13.90;8.05;;;13.10;99.90;;;;;;5099126;28;20055;-72
2023/04/18 09:25:33;;;;;;;13.93;8.13;;;13.00;99.90;;;;;;5099723;28;20422;-72
2023/04/18 09:28:00;;;;;;;17.50;7.68;;;12.90;99.90;;;;;;5100014;28;20097;-72
2023/04/18 09:30:36;;;;;;;14.75;8.77;;;12.90;99.90;;;;;;5100205;28;20039;-72
2023/04/18 09:33:10;;;;;;;15.27;7.95;;;12.80;99.90;;;;;;5099996;28;20051;-72
2023/04/18 09:35:37;;;;;;;13.20;7.85;;;12.80;99.90;;;;;;5099907;28;20039;-72
2023/04/18 09:38:03;;;;;;;12.73;7.85;;;12.90;99.90;;;;;;5099844;28;20128;-75
2023/04/18 09:40:29;;;;;;;11.73;7.68;;;13.20;99.90;;;;;;5099668;28;20527;-76
2023/04/18 09:42:55;;;;;;;17.35;8.23;;;13.50;99.90;;;;;;5099940;28;20093;-74
2023/04/18 09:45:22;;;;;;;13.70;8.27;;;13.50;99.90;;;;;;5099985;28;20358;-75
2023/04/18 09:47:48;;;;;;;13.20;7.93;;;13.50;99.90;;;;;;5081740;28;20480;-74
2023/04/18 09:50:17;;;;;;;13.07;7.80;;;13.50;99.90;;;;;;5099280;28;20452;-75
2023/04/18 09:52:44;;;;;;;13.63;8.10;;;13.50;99.90;;;;;;5100043;28;20047;-75
2023/04/18 09:55:15;;;;;;;15.10;7.88;;;13.70;99.90;;;;;;5098594;28;20048;-75
2023/04/18 09:57:46;;;;;;;15.00;8.13;;;13.90;99.90;;;;;;5098959;28;20090;-75
2023/04/18 10:00:22;;;;;;;14.05;8.18;;;13.90;99.90;;;;;;5099492;28;20047;-73
2023/04/18 10:02:58;;;;;;;13.32;7.82;;;13.80;99.90;;;;;;5098925;28;20436;-74
2023/04/18 10:05:33;;;;;;;14.52;7.88;;;13.70;99.90;;;;;;5098707;28;20119;-75
2023/04/18 10:07:58;;;;;;;14.43;8.10;;;13.90;99.90;;;;;;5098584;28;20040;-76
2023/04/18 10:10:24;;;;;;;12.98;7.78;;;14.00;99.90;;;;;;5099253;28;20032;-75
2023/04/18 10:12:53;;;;;;;13.98;7.63;;;14.10;99.90;;;;;;5097867;28;20064;-70
2023/04/18 10:15:21;;;;;;;12.32;7.40;;;14.20;99.90;;;;;;5098311;28;20044;-74
2023/04/18 10:17:55;;;;;;;15.82;7.47;;;14.40;99.90;;;;;;5097786;28;20054;-74
2023/04/18 10:20:26;;;;;;;14.60;7.93;;;14.30;99.90;;;;;;5098210;28;20057;-74
2023/04/18 10:22:54;;;;;;;11.88;7.18;;;14.40;99.90;;;;;;5098945;28;20432;-75
2023/04/18 10:25:38;;;;;;;11.88;6.97;;;14.50;99.90;;;;;;5098047;28;20044;-74
2023/04/18 10:28:06;;;;;;;14.50;7.50;;;14.50;99.90;;;;;;5099015;28;20189;-74
2023/04/18 10:30:40;;;;;;;12.00;6.50;;;14.30;99.90;;;;;;5080761;28;20048;-72
2023/04/18 10:33:36;;;;;;;11.45;7.20;;;14.10;99.90;;;;;;5098492;28;20040;-70
2023/04/18 10:36:07;;;;;;;12.02;7.95;;;14.20;99.90;;;;;;5099326;28;20032;-73
2023/04/18 10:38:35;;;;;;;12.95;7.47;;;14.60;99.90;;;;;;5098664;28;20039;-73
2023/04/18 10:41:23;;;;;;;12.27;6.63;;;14.70;99.90;;;;;;5098774;28;20369;-75
2023/04/18 10:44:14;;;;;;;11.60;6.60;;;14.70;99.90;;;;;;5098384;28;20328;-70
2023/04/18 10:46:51;;;;;;;15.18;6.53;;;14.60;99.90;;;;;;5098313;28;20123;-73
2023/04/18 10:49:22;;;;;;;12.18;6.85;;;15.20;99.90;;;;;;5098528;28;20050;-71
2023/04/18 10:51:52;;;;;;;14.77;6.55;;;15.60;99.90;;;;;;5098423;28;20046;-72
2023/04/18 10:54:41;;;;;;;9.55;5.90;;;15.50;99.90;;;;;;5098134;28;20429;-72
2023/04/18 10:57:07;;;;;;;9.70;6.20;;;15.50;99.90;;;;;;5080096;28;20433;-71
2023/04/18 10:59:37;;;;;;;12.98;6.43;;;15.00;99.90;;;;;;5098059;28;20437;-72
2023/04/18 11:02:29;;;;;;;8.90;5.78;;;15.20;99.90;;;;;;5096494;28;20044;-72
2023/04/18 11:04:56;;;;;;;18.40;6.45;;;14.90;99.90;;;;;;5098002;28;20059;-71
2023/04/18 11:07:54;;;;;;;7.90;5.68;;;15.10;99.90;;;;;;5096757;28;20044;-69
2023/04/18 11:10:25;;;;;;;9.82;5.72;;;15.70;99.90;;;;;;5064228;28;20055;-68
2023/04/18 11:12:52;;;;;;;9.52;5.68;;;16.40;99.90;;;;;;5097743;28;20071;-69
2023/04/18 11:15:20;;;;;;;9.50;5.90;;;16.80;99.90;;;;;;5097985;28;20058;-69
2023/04/18 11:17:56;;;;;;;11.18;6.18;;;17.20;99.90;;;;;;5097845;28;20385;-69
2023/04/18 11:20:22;;;;;;;10.38;6.38;;;17.30;99.90;;;;;;5097977;28;20032;-69
2023/04/18 11:22:53;;;;;;;10.27;6.88;;;17.30;99.90;;;;;;5097838;28;20489;-70
2023/04/18 11:25:25;;;;;;;9.27;5.93;;;17.00;99.90;;;;;;5097807;28;20041;-70
2023/04/18 11:27:51;;;;;;;13.10;6.45;;;17.00;99.90;;;;;;5097791;28;20044;-71
2023/04/18 11:30:17;;;;;;;11.90;6.32;;;16.90;99.90;;;;;;5097866;28;20093;-69
2023/04/18 11:32:43;;;;;;;17.00;6.35;;;16.60;99.90;;;;;;5097170;28;20055;-68
2023/04/18 11:35:10;;;;;;;9.10;6.25;;;16.40;99.90;;;;;;5097587;28;20383;-69
2023/04/18 11:37:37;;;;;;;8.32;5.57;;;16.40;99.90;;;;;;5097334;28;20303;-69
2023/04/18 11:40:06;;;;;;;10.23;6.10;;;16.70;99.90;;;;;;5097567;28;20035;-69
2023/04/18 11:42:33;;;;;;;12.40;6.47;;;16.90;99.90;;;;;;5097332;28;20485;-69
2023/04/18 11:44:59;;;;;;;9.52;6.45;;;17.40;99.90;;;;;;5097526;28;20046;-69
2023/04/18 11:47:27;;;;;;;11.25;6.70;;;17.60;99.90;;;;;;5097652;28;20139;-69
2023/04/18 11:49:57;;;;;;;11.02;6.15;;;17.70;99.90;;;;;;5097386;28;20076;-69
2023/04/18 11:52:23;;;;;;;8.15;5.47;;;17.60;99.90;;;;;;5079168;28;20044;-69
2023/04/18 11:54:49;;;;;;;8.50;5.13;;;18.00;99.90;;;;;;5097285;28;20035;-69
2023/04/18 11:57:26;;;;;;;6.65;4.97;;;18.30;99.90;;;;;;5113144;28;20305;-69
2023/04/18 11:59:53;;;;;;;7.75;4.80;;;18.20;99.90;;;;;;5097382;28;20394;-69
2023/04/18 12:02:20;;;;;;;6.43;5.13;;;18.00;99.90;;;;;;5096776;28;20036;-69
2023/04/18 12:04:54;;;;;;;7.68;4.88;;;18.10;99.90;;;;;;5097138;28;20063;-69
2023/04/18 12:08:03;;;;;;;9.70;5.18;;;18.20;99.90;;;;;;5096836;28;20086;-69
2023/04/18 12:10:29;;;;;;;7.80;4.70;;;17.90;99.90;;;;;;5034661;28;20439;-69
2023/04/18 12:13:00;;;;;;;6.80;4.10;;;18.10;99.90;;;;;;5087496;28;20056;-69
2023/04/18 12:15:27;;;;;;;11.45;4.32;;;18.20;99.90;;;;;;5097047;28;20044;-69
2023/04/18 12:17:59;;;;;;;5.18;3.85;;;18.00;99.90;;;;;;5096641;28;20036;-69
2023/04/18 12:20:35;;;;;;;8.20;3.88;;;18.30;99.90;;;;;;5096679;28;20043;-69
2023/04/18 12:23:02;;;;;;;6.80;3.50;;;18.80;99.90;;;;;;5096982;28;20047;-69
2023/04/18 12:25:28;;;;;;;6.53;4.00;;;18.60;99.90;;;;;;5095947;28;20107;-69
2023/04/18 12:28:04;;;;;;;5.22;3.55;;;18.30;99.90;;;;;;5096906;28;20086;-69
2023/04/18 12:30:31;;;;;;;;;;;18.30;99.90;;;;;;5097039;28;20440;-69
2023/04/18 12:32:59;;;;;;;4.95;3.65;;;18.70;99.90;;;;;;5096187;28;20326;-69
2023/04/18 12:35:26;;;;;;;10.13;3.83;;;19.20;99.90;;;;;;5096829;28;20048;-69
2023/04/18 12:37:55;;;;;;;6.00;3.88;;;19.30;99.90;;;;;;5096471;28;20040;-69
2023/04/18 12:40:22;;;;;;;4.53;3.10;;;19.50;99.90;;;;;;5096795;28;20032;-69
2023/04/18 12:42:49;;;;;;;6.97;3.40;;;19.60;99.90;;;;;;5096457;28;20040;-69